Time;durP1;ratioP1;P1;durP2;ratioP2;P2;SDS_P1;SDS_P2;PMS_P1;PMS_P2;Temp;Humidity;BMP_temperature;BMP_pressure;BME280_temperature;BME280_humidity;BME280_pressure;Samples;Min_cycle;Max_cycle;Signal;HPM_P1;HPM_P2
2021/05/16 00:00:27;;;;;;;5.35;1.30;;;11.20;99.90;;;;;;5078927;28;20048;-75
2021/05/16 00:02:54;;;;;;;5.88;1.33;;;11.20;99.90;;;;;;5081218;28;20087;-73
2021/05/16 00:05:24;;;;;;;3.53;1.30;;;11.30;99.90;;;;;;5077556;28;20048;-74
2021/05/16 00:07:52;;;;;;;5.25;1.58;;;11.30;99.90;;;;;;5083583;28;20212;-74
2021/05/16 00:10:20;;;;;;;6.00;1.40;;;11.30;99.90;;;;;;5081291;28;20072;-73
2021/05/16 00:12:47;;;;;;;4.32;1.98;;;11.30;99.90;;;;;;5078422;28;20089;-73
2021/05/16 00:15:17;;;;;;;4.18;1.40;;;11.30;99.90;;;;;;5079713;28;22056;-74
2021/05/16 00:17:44;;;;;;;7.07;1.52;;;11.20;99.90;;;;;;5086721;28;20471;-74
2021/05/16 00:20:15;;;;;;;3.70;1.48;;;11.20;99.90;;;;;;5080179;28;20506;-73
2021/05/16 00:22:42;;;;;;;5.03;1.88;;;11.10;99.90;;;;;;5079646;28;20706;-74
2021/05/16 00:25:11;;;;;;;3.22;1.27;;;11.10;99.90;;;;;;5084442;28;20082;-73
2021/05/16 00:27:39;;;;;;;4.68;1.70;;;11.20;99.90;;;;;;5082450;28;20462;-73
2021/05/16 00:30:09;;;;;;;3.20;1.25;;;11.10;99.90;;;;;;5081379;28;20048;-74
2021/05/16 00:32:37;;;;;;;11.10;2.28;;;11.20;99.90;;;;;;5081306;28;20105;-74
2021/05/16 00:35:10;;;;;;;11.13;3.42;;;11.00;99.90;;;;;;5086874;28;20072;-74
2021/05/16 00:37:37;;;;;;;5.00;1.60;;;11.10;99.90;;;;;;5087013;28;20048;-74
2021/05/16 00:40:06;;;;;;;4.45;1.65;;;11.00;99.90;;;;;;5079259;28;20079;-74
2021/05/16 00:42:33;;;;;;;3.85;1.83;;;11.00;99.90;;;;;;5088801;28;20048;-74
2021/05/16 00:45:15;;;;;;;4.68;1.40;;;11.00;99.90;;;;;;5084300;28;20076;-74
2021/05/16 00:47:48;;;;;;;8.95;1.38;;;11.00;99.90;;;;;;5079036;28;20063;-74
2021/05/16 00:50:17;;;;;;;3.67;1.52;;;11.10;99.90;;;;;;5087558;28;20442;-74
2021/05/16 00:52:45;;;;;;;6.90;1.50;;;11.20;99.90;;;;;;5080949;28;20044;-73
2021/05/16 00:55:13;;;;;;;7.25;1.50;;;11.20;99.90;;;;;;5082871;28;20049;-74
2021/05/16 00:57:41;;;;;;;8.07;1.80;;;11.10;99.90;;;;;;5085202;28;20097;-74
2021/05/16 01:00:12;;;;;;;8.60;1.85;;;11.10;99.90;;;;;;5075375;28;20082;-74
2021/05/16 01:02:38;;;;;;;;;;;11.20;99.90;;;;;;5089761;28;20071;-75
2021/05/16 01:05:07;;;;;;;6.28;1.52;;;11.20;99.90;;;;;;5083136;28;19946;-74
2021/05/16 01:07:35;;;;;;;9.63;1.55;;;11.00;99.90;;;;;;5075056;28;20547;-75
2021/05/16 01:10:05;;;;;;;6.95;1.27;;;11.10;99.90;;;;;;5083879;28;20075;-74
2021/05/16 01:12:40;;;;;;;;;;;11.20;99.90;;;;;;5081591;28;20083;-73
2021/05/16 01:15:13;;;;;;;7.13;1.65;;;11.10;99.90;;;;;;5084963;28;19934;-74
2021/05/16 01:17:40;;;;;;;7.28;1.33;;;11.00;99.90;;;;;;5086777;28;20127;-74
2021/05/16 01:20:09;;;;;;;6.70;1.45;;;10.90;99.90;;;;;;5077186;28;20498;-75
2021/05/16 01:22:37;;;;;;;6.82;1.30;;;11.00;99.90;;;;;;5082737;28;20056;-74
2021/05/16 01:25:05;;;;;;;3.58;1.17;;;11.00;99.90;;;;;;5087939;28;20052;-74
2021/05/16 01:27:32;;;;;;;3.80;1.45;;;11.00;99.90;;;;;;5076781;28;20509;-74
2021/05/16 01:30:00;;;;;;;6.03;1.13;;;11.10;99.90;;;;;;5085813;28;20121;-74
2021/05/16 01:32:27;;;;;;;3.45;1.25;;;11.10;99.90;;;;;;5083831;28;20060;-74
2021/05/16 01:34:54;;;;;;;3.97;1.50;;;11.10;99.90;;;;;;5080843;28;20124;-77
2021/05/16 01:37:23;;;;;;;5.47;1.38;;;11.00;99.90;;;;;;5084013;28;20048;-75
2021/05/16 01:39:50;;;;;;;5.05;1.00;;;11.10;99.90;;;;;;5078737;28;20104;-74
2021/05/16 01:42:18;;;;;;;3.50;1.30;;;10.90;99.90;;;;;;5086352;28;20072;-73
2021/05/16 01:44:45;;;;;;;4.82;1.35;;;11.10;99.90;;;;;;5086277;28;20457;-74
2021/05/16 01:47:12;;;;;;;5.40;1.10;;;11.00;99.90;;;;;;5081377;28;20075;-71
2021/05/16 01:49:47;;;;;;;3.45;1.05;;;11.10;99.90;;;;;;5088851;28;20115;-73
2021/05/16 01:52:15;;;;;;;1.73;1.00;;;11.00;99.90;;;;;;5081239;28;20075;-74
2021/05/16 01:54:42;;;;;;;3.25;1.00;;;11.00;99.90;;;;;;5075938;28;20071;-74
2021/05/16 01:57:09;;;;;;;3.88;1.27;;;11.10;99.90;;;;;;5085938;28;20052;-72
2021/05/16 01:59:36;;;;;;;4.28;1.05;;;11.00;99.90;;;;;;5078298;28;20079;-74
2021/05/16 02:02:04;;;;;;;4.57;1.17;;;11.00;99.90;;;;;;5075167;28;20143;-74
2021/05/16 02:04:32;;;;;;;2.95;0.90;;;11.10;99.90;;;;;;5079364;28;20049;-70
2021/05/16 02:06:59;;;;;;;3.25;0.90;;;11.10;99.90;;;;;;5080589;28;20071;-72
2021/05/16 02:09:28;;;;;;;3.40;1.02;;;11.00;99.90;;;;;;5080226;28;20132;-72
2021/05/16 02:11:55;;;;;;;3.17;0.77;;;11.00;99.90;;;;;;5078693;28;20047;-72
2021/05/16 02:14:27;;;;;;;1.67;0.75;;;11.10;99.90;;;;;;5072625;28;20053;-72
2021/05/16 02:16:56;;;;;;;1.58;0.98;;;11.20;99.90;;;;;;5089852;28;20067;-73
2021/05/16 02:19:23;;;;;;;4.63;1.00;;;11.30;99.90;;;;;;5087214;28;20548;-73
2021/05/16 02:21:51;;;;;;;3.08;0.88;;;11.20;99.90;;;;;;5081844;28;20076;-72
2021/05/16 02:24:18;;;;;;;2.72;0.90;;;11.10;99.90;;;;;;5085881;28;20483;-73
2021/05/16 02:26:46;;;;;;;5.57;0.98;;;11.20;99.90;;;;;;5079538;28;20098;-73
2021/05/16 02:29:15;;;;;;;4.60;1.17;;;11.30;99.90;;;;;;5075404;28;20045;-72
2021/05/16 02:31:42;;;;;;;4.20;0.95;;;11.20;99.90;;;;;;5083705;28;20101;-73
2021/05/16 02:34:09;;;;;;;5.18;1.00;;;11.20;99.90;;;;;;5080638;28;20543;-73
2021/05/16 02:36:36;;;;;;;3.05;1.00;;;11.10;99.90;;;;;;5071233;28;20119;-73
2021/05/16 02:39:04;;;;;;;2.88;1.23;;;11.10;99.90;;;;;;5082780;28;20384;-73
2021/05/16 02:41:31;;;;;;;3.60;1.20;;;11.20;99.90;;;;;;5074264;28;20127;-72
2021/05/16 02:43:58;;;;;;;2.78;1.40;;;11.00;99.90;;;;;;5078517;28;20049;-72
2021/05/16 02:46:25;;;;;;;4.78;1.00;;;11.00;99.90;;;;;;5081482;28;20719;-73
2021/05/16 02:48:52;;;;;;;5.65;1.30;;;11.00;99.90;;;;;;5086317;28;20079;-73
2021/05/16 02:51:20;;;;;;;4.78;1.20;;;11.00;99.90;;;;;;5084202;28;20092;-73
2021/05/16 02:53:48;;;;;;;4.03;1.50;;;11.10;99.90;;;;;;5083661;28;20093;-72
2021/05/16 02:56:16;;;;;;;3.47;1.38;;;11.10;99.90;;;;;;5073279;28;20106;-73
2021/05/16 02:58:43;;;;;;;5.30;1.23;;;11.10;99.90;;;;;;5087214;28;20089;-73
2021/05/16 03:01:11;;;;;;;2.78;1.20;;;11.20;99.90;;;;;;5078665;28;20076;-73
2021/05/16 03:03:39;;;;;;;5.97;1.55;;;11.10;99.90;;;;;;5078656;28;20052;-73
2021/05/16 03:06:07;;;;;;;4.82;1.50;;;11.00;99.90;;;;;;5081242;28;20519;-74
2021/05/16 03:08:34;;;;;;;3.13;1.52;;;11.10;99.90;;;;;;5082867;28;20140;-72
2021/05/16 03:11:01;;;;;;;1.85;1.40;;;11.20;99.90;;;;;;5080784;28;20044;-73
2021/05/16 03:13:28;;;;;;;2.47;1.40;;;11.30;99.90;;;;;;5081423;28;20139;-72
2021/05/16 03:15:55;;;;;;;2.70;1.40;;;11.20;99.90;;;;;;5089227;28;20071;-72
2021/05/16 03:18:23;;;;;;;2.47;1.40;;;11.20;99.90;;;;;;5082591;28;20068;-73
2021/05/16 03:20:49;;;;;;;3.20;1.33;;;11.20;99.90;;;;;;5074161;28;20094;-73
2021/05/16 03:23:17;;;;;;;6.65;1.55;;;11.20;99.90;;;;;;5079867;28;20055;-73
2021/05/16 03:25:45;;;;;;;6.55;1.67;;;10.90;99.90;;;;;;5084419;28;20433;-73
2021/05/16 03:28:12;;;;;;;4.38;2.00;;;10.80;99.90;;;;;;5076439;28;20437;-73
2021/05/16 03:30:39;;;;;;;7.88;1.80;;;10.90;99.90;;;;;;5090395;28;20750;-73
2021/05/16 03:33:06;;;;;;;4.03;1.55;;;10.70;99.90;;;;;;5086085;28;20079;-72
2021/05/16 03:35:33;;;;;;;6.15;2.00;;;10.70;99.90;;;;;;5080360;28;20584;-73
2021/05/16 03:37:59;;;;;;;3.97;1.77;;;10.80;99.90;;;;;;5086367;28;20078;-72
2021/05/16 03:40:31;;;;;;;5.10;1.50;;;10.80;99.90;;;;;;5076736;28;20124;-74
2021/05/16 03:42:58;;;;;;;3.70;2.17;;;10.80;99.90;;;;;;5073075;28;20502;-74
2021/05/16 03:45:24;;;;;;;6.53;2.05;;;10.80;99.90;;;;;;5084031;28;20048;-74
2021/05/16 03:47:51;;;;;;;4.57;1.65;;;10.80;99.90;;;;;;5083517;28;20468;-74
2021/05/16 03:50:18;;;;;;;3.92;2.10;;;10.70;99.90;;;;;;5085878;28;20082;-74
2021/05/16 03:52:45;;;;;;;7.18;1.95;;;10.80;99.90;;;;;;5089464;28;20039;-73
2021/05/16 03:55:12;;;;;;;5.15;2.10;;;10.70;99.90;;;;;;5087605;28;20127;-75
2021/05/16 03:57:40;;;;;;;4.72;1.88;;;10.70;99.90;;;;;;5078828;28;20041;-74
2021/05/16 04:00:08;;;;;;;3.88;1.98;;;10.80;99.90;;;;;;5087161;28;20498;-74
2021/05/16 04:02:34;;;;;;;6.78;2.47;;;10.70;99.90;;;;;;5079082;28;20091;-74
2021/05/16 04:05:02;;;;;;;3.45;2.10;;;10.80;99.90;;;;;;5080342;28;20048;-74
2021/05/16 04:07:29;;;;;;;4.82;2.30;;;10.90;99.90;;;;;;5085921;28;20130;-74
2021/05/16 04:09:56;;;;;;;3.80;1.88;;;10.80;99.90;;;;;;5080228;28;20452;-74
2021/05/16 04:12:23;;;;;;;5.97;2.20;;;10.80;99.90;;;;;;5084972;28;20122;-73
2021/05/16 04:14:50;;;;;;;9.10;2.50;;;10.70;99.90;;;;;;5081484;28;20088;-74
2021/05/16 04:17:19;;;;;;;7.82;2.53;;;10.70;99.90;;;;;;5076693;28;20045;-74
2021/05/16 04:19:46;;;;;;;3.55;2.38;;;10.80;99.90;;;;;;5081866;28;20654;-74
2021/05/16 04:22:13;;;;;;;6.18;2.40;;;10.80;99.90;;;;;;5083172;28;20135;-74
2021/05/16 04:24:40;;;;;;;5.93;2.60;;;10.80;99.90;;;;;;5087376;28;20462;-75
2021/05/16 04:27:07;;;;;;;5.63;2.40;;;10.90;99.90;;;;;;5088912;28;20475;-74
2021/05/16 04:29:34;;;;;;;6.10;2.30;;;10.80;99.90;;;;;;5076196;28;20052;-74
2021/05/16 04:32:00;;;;;;;4.05;2.60;;;10.80;99.90;;;;;;5080068;28;20072;-74
2021/05/16 04:34:29;;;;;;;6.15;2.28;;;11.00;99.90;;;;;;5082610;28;20087;-74
2021/05/16 04:36:55;;;;;;;5.85;2.05;;;11.00;99.90;;;;;;5080164;28;20052;-74
2021/05/16 04:39:22;;;;;;;3.25;2.20;;;11.10;99.90;;;;;;5090431;28;20113;-74
2021/05/16 04:41:49;;;;;;;4.35;1.95;;;11.10;99.90;;;;;;5081255;28;20094;-74
2021/05/16 04:44:16;;;;;;;6.88;2.22;;;11.00;99.90;;;;;;5077433;28;20048;-74
2021/05/16 04:46:43;;;;;;;6.95;2.63;;;11.00;99.90;;;;;;5082830;28;20049;-74
2021/05/16 04:49:10;;;;;;;8.73;2.42;;;11.10;99.90;;;;;;5076014;28;20114;-74
2021/05/16 04:51:36;;;;;;;5.65;2.60;;;11.10;99.90;;;;;;5087461;28;20098;-75
2021/05/16 04:54:04;;;;;;;4.35;2.25;;;11.00;99.90;;;;;;5082288;28;20104;-75
2021/05/16 04:56:30;;;;;;;4.25;2.58;;;11.00;99.90;;;;;;5085931;28;20083;-75
2021/05/16 04:58:57;;;;;;;8.55;2.83;;;11.00;99.90;;;;;;5082957;28;20052;-75
2021/05/16 05:01:25;;;;;;;7.85;2.22;;;11.20;99.90;;;;;;5082426;28;20044;-75
2021/05/16 05:03:53;;;;;;;6.85;2.70;;;11.00;99.90;;;;;;5083774;28;21376;-75
2021/05/16 05:06:21;;;;;;;6.13;2.38;;;11.00;99.90;;;;;;5089335;28;20120;-73
2021/05/16 05:08:49;;;;;;;5.47;2.67;;;11.00;99.90;;;;;;5084408;28;20513;-74
2021/05/16 05:11:16;;;;;;;5.25;2.58;;;11.10;99.90;;;;;;5081292;28;20071;-75
2021/05/16 05:13:42;;;;;;;5.85;2.58;;;11.20;99.90;;;;;;5083160;28;20071;-75
2021/05/16 05:16:09;;;;;;;6.78;2.40;;;11.20;99.90;;;;;;5080078;28;20097;-74
2021/05/16 05:18:36;;;;;;;5.90;2.60;;;11.20;99.90;;;;;;5075191;28;20086;-72
2021/05/16 05:21:03;;;;;;;9.15;2.85;;;11.10;99.90;;;;;;5088981;28;20542;-75
2021/05/16 05:23:30;;;;;;;6.00;2.45;;;11.10;99.90;;;;;;5077332;28;20477;-74
2021/05/16 05:25:59;;;;;;;5.00;2.08;;;11.20;99.90;;;;;;5081758;28;20044;-74
2021/05/16 05:28:26;;;;;;;5.20;2.30;;;11.30;99.90;;;;;;5077177;28;20087;-72
2021/05/16 05:30:53;;;;;;;9.93;2.65;;;11.20;99.90;;;;;;5082710;28;20173;-73
2021/05/16 05:33:20;;;;;;;7.15;2.55;;;11.30;99.90;;;;;;5084017;28;20052;-75
2021/05/16 05:35:47;;;;;;;4.97;2.28;;;11.30;99.90;;;;;;5078480;28;20053;-72
2021/05/16 05:38:14;;;;;;;3.28;2.05;;;11.30;99.90;;;;;;5081809;28;20051;-74
2021/05/16 05:40:40;;;;;;;5.90;2.08;;;11.20;99.90;;;;;;5086680;28;20127;-74
2021/05/16 05:43:07;;;;;;;6.00;2.40;;;11.20;99.90;;;;;;5075773;28;20148;-73
2021/05/16 05:45:34;;;;;;;7.78;2.50;;;11.20;99.90;;;;;;5085935;28;20073;-74
2021/05/16 05:48:01;;;;;;;7.47;2.13;;;11.20;99.90;;;;;;5082971;28;20094;-75
2021/05/16 05:50:28;;;;;;;7.82;2.35;;;11.10;99.90;;;;;;5080197;28;20137;-75
2021/05/16 05:52:58;;;;;;;8.80;2.38;;;11.10;99.90;;;;;;5085182;28;20467;-75
2021/05/16 05:55:25;;;;;;;3.08;1.98;;;11.00;99.90;;;;;;5079148;28;20048;-75
2021/05/16 05:57:52;;;;;;;3.95;2.10;;;11.10;99.90;;;;;;5087052;28;20075;-75
2021/05/16 06:00:19;;;;;;;6.55;2.53;;;11.20;99.90;;;;;;5082471;28;20053;-73
2021/05/16 06:02:46;;;;;;;4.20;2.10;;;11.10;99.90;;;;;;5076636;28;20490;-73
2021/05/16 06:05:13;;;;;;;4.82;1.77;;;11.30;99.90;;;;;;5082821;28;20045;-74
2021/05/16 06:07:40;;;;;;;3.85;2.30;;;11.30;99.90;;;;;;5085037;28;20051;-73
2021/05/16 06:10:07;;;;;;;3.63;1.80;;;11.30;99.90;;;;;;5078386;28;20131;-74
2021/05/16 06:12:34;;;;;;;6.28;2.40;;;11.30;99.90;;;;;;5087493;28;20055;-69
2021/05/16 06:15:01;;;;;;;3.13;1.83;;;11.20;99.90;;;;;;5081248;28;20449;-68
2021/05/16 06:17:28;;;;;;;3.00;2.05;;;11.30;99.90;;;;;;5077213;28;20058;-68
2021/05/16 06:19:54;;;;;;;5.88;2.08;;;11.30;99.90;;;;;;5080790;28;20067;-68
2021/05/16 06:22:21;;;;;;;6.60;2.20;;;11.40;99.90;;;;;;5081129;28;20163;-71
2021/05/16 06:24:48;;;;;;;4.82;1.85;;;11.60;99.90;;;;;;5082812;28;20044;-70
2021/05/16 06:27:15;;;;;;;5.03;2.17;;;11.60;99.90;;;;;;5083641;28;20071;-70
2021/05/16 06:29:42;;;;;;;4.60;2.28;;;11.60;99.90;;;;;;5078717;28;20097;-70
2021/05/16 06:32:12;;;;;;;5.70;2.08;;;11.60;99.90;;;;;;5082614;28;20056;-69
2021/05/16 06:34:39;;;;;;;4.50;2.22;;;11.70;99.90;;;;;;5080422;28;20135;-69
2021/05/16 06:37:06;;;;;;;7.13;2.40;;;11.80;99.90;;;;;;5098207;28;20530;-70
2021/05/16 06:39:33;;;;;;;7.38;2.22;;;11.70;99.90;;;;;;5085002;28;20052;-69
2021/05/16 06:42:00;;;;;;;5.22;1.92;;;11.60;99.90;;;;;;5078348;28;20052;-69
2021/05/16 06:44:28;;;;;;;3.28;1.83;;;11.70;99.90;;;;;;5080834;28;20187;-74
2021/05/16 06:46:55;;;;;;;5.88;2.08;;;11.60;99.90;;;;;;5083802;28;20048;-74
2021/05/16 06:49:22;;;;;;;8.55;2.45;;;11.60;99.90;;;;;;5073184;28;20546;-75
2021/05/16 06:51:49;;;;;;;7.55;2.13;;;11.60;99.90;;;;;;5078447;28;20109;-74
2021/05/16 06:54:16;;;;;;;4.03;1.88;;;11.70;99.90;;;;;;5080831;28;20044;-75
2021/05/16 06:56:46;;;;;;;5.85;1.92;;;11.80;99.90;;;;;;5074347;28;20047;-75
2021/05/16 06:59:15;;;;;;;7.45;2.00;;;11.80;99.90;;;;;;5098490;28;20076;-75
2021/05/16 07:01:41;;;;;;;8.45;1.80;;;11.90;99.90;;;;;;5078807;28;20184;-73
2021/05/16 07:04:08;;;;;;;3.83;1.67;;;12.00;99.90;;;;;;5082192;28;20079;-74
2021/05/16 07:06:35;;;;;;;2.40;1.60;;;12.00;99.90;;;;;;5082028;28;20040;-74
2021/05/16 07:09:02;;;;;;;6.68;1.92;;;12.00;99.90;;;;;;5081444;28;20129;-74
2021/05/16 07:11:29;;;;;;;6.05;2.13;;;12.10;99.90;;;;;;5078288;28;20076;-74
2021/05/16 07:13:56;;;;;;;5.72;2.00;;;12.20;99.90;;;;;;5083809;28;20101;-74
2021/05/16 07:16:23;;;;;;;6.95;1.95;;;12.30;99.90;;;;;;5079484;28;20102;-74
2021/05/16 07:18:50;;;;;;;8.63;1.60;;;12.80;99.90;;;;;;5077913;28;20068;-74
2021/05/16 07:21:17;;;;;;;2.92;1.42;;;13.10;99.90;;;;;;5081962;28;20049;-74
2021/05/16 07:23:44;;;;;;;5.47;1.60;;;13.30;99.90;;;;;;5077801;28;20110;-74
2021/05/16 07:26:10;;;;;;;3.47;1.27;;;13.00;99.90;;;;;;5080223;28;20543;-75
2021/05/16 07:28:37;;;;;;;8.60;1.95;;;13.20;99.90;;;;;;5079586;28;20066;-75
2021/05/16 07:31:05;;;;;;;7.93;1.52;;;13.00;99.90;;;;;;5076951;28;20047;-74
2021/05/16 07:33:31;;;;;;;6.47;1.58;;;13.10;99.90;;;;;;5081843;28;20036;-75
2021/05/16 07:36:01;;;;;;;3.05;1.48;;;13.00;99.90;;;;;;5080446;28;20078;-72
2021/05/16 07:38:28;;;;;;;2.83;1.50;;;13.10;99.90;;;;;;5076415;28;20052;-75
2021/05/16 07:40:55;;;;;;;5.00;1.50;;;13.00;99.90;;;;;;5082653;28;20099;-73
2021/05/16 07:43:24;;;;;;;2.80;1.10;;;12.90;99.90;;;;;;5072572;28;20146;-74
2021/05/16 07:45:53;;;;;;;2.80;1.33;;;13.00;99.90;;;;;;5081240;28;20445;-75
2021/05/16 07:48:28;;;;;;;5.05;1.30;;;13.30;99.90;;;;;;5083669;28;20138;-72
2021/05/16 07:51:00;;;;;;;7.75;1.70;;;13.60;99.90;;;;;;5083216;28;20044;-73
2021/05/16 07:53:28;;;;;;;3.13;1.15;;;13.40;99.90;;;;;;5081706;28;20067;-72
2021/05/16 07:55:55;;;;;;;3.83;1.20;;;13.60;99.90;;;;;;5082048;28;20084;-73
2021/05/16 07:58:22;;;;;;;6.38;1.48;;;13.80;99.90;;;;;;5082371;28;20459;-75
2021/05/16 08:00:49;;;;;;;5.30;1.40;;;13.90;99.90;;;;;;5083976;28;20514;-74
2021/05/16 08:03:16;;;;;;;5.15;1.08;;;14.00;99.90;;;;;;5080275;28;20048;-74
2021/05/16 08:05:43;;;;;;;4.30;1.20;;;13.90;99.90;;;;;;5073488;28;20488;-74
2021/05/16 08:08:10;;;;;;;5.72;1.13;;;13.80;99.90;;;;;;5083438;28;20056;-73
2021/05/16 08:10:37;;;;;;;4.40;1.35;;;14.00;99.90;;;;;;5075975;28;20392;-73
2021/05/16 08:13:04;;;;;;;9.60;1.42;;;14.10;99.90;;;;;;5072694;28;20132;-73
2021/05/16 08:15:33;;;;;;;6.22;1.50;;;13.90;99.90;;;;;;5084078;28;20063;-74
2021/05/16 08:18:04;;;;;;;9.55;1.70;;;13.90;99.90;;;;;;5084282;28;20128;-75
2021/05/16 08:20:33;;;;;;;9.55;1.30;;;13.80;99.90;;;;;;5077547;28;20056;-71
2021/05/16 08:23:01;;;;;;;6.15;1.35;;;13.80;99.90;;;;;;5081293;28;20050;-73
2021/05/16 08:25:28;;;;;;;4.75;1.35;;;13.80;99.90;;;;;;5075595;28;20080;-75
2021/05/16 08:27:57;;;;;;;7.47;1.58;;;14.10;99.90;;;;;;5076655;28;20044;-75
2021/05/16 08:30:24;;;;;;;5.30;1.75;;;14.50;99.90;;;;;;5079628;28;20380;-74
2021/05/16 08:32:51;;;;;;;5.50;1.60;;;14.50;99.80;;;;;;5076087;28;20127;-73
2021/05/16 08:35:20;;;;;;;10.18;1.60;;;14.70;99.90;;;;;;5087626;28;20044;-75
2021/05/16 08:37:50;;;;;;;2.97;1.00;;;14.70;99.90;;;;;;5085751;28;20052;-74
2021/05/16 08:40:17;;;;;;;10.40;1.70;;;14.30;99.90;;;;;;5080902;28;20076;-74
2021/05/16 08:42:45;;;;;;;5.57;1.75;;;14.20;99.90;;;;;;5082222;28;20049;-74
2021/05/16 08:45:14;;;;;;;5.88;1.33;;;14.30;99.50;;;;;;5082218;28;20047;-73
2021/05/16 08:47:44;;;;;;;8.75;1.45;;;14.70;98.40;;;;;;5082125;28;20060;-74
2021/05/16 08:50:15;;;;;;;5.78;1.35;;;14.40;99.30;;;;;;5085199;28;20134;-74
2021/05/16 08:52:42;;;;;;;7.38;1.95;;;14.60;98.70;;;;;;5075180;28;20102;-74
2021/05/16 08:55:11;;;;;;;7.93;1.92;;;14.50;98.60;;;;;;5084137;28;20048;-74
2021/05/16 08:57:42;;;;;;;6.60;1.10;;;14.50;98.00;;;;;;5082890;28;20047;-74
2021/05/16 09:00:16;;;;;;;7.95;1.42;;;14.80;96.60;;;;;;5084771;28;20059;-74
2021/05/16 09:03:09;;;;;;;5.22;1.50;;;14.60;96.40;;;;;;5078433;28;20139;-74
2021/05/16 09:05:41;;;;;;;9.93;1.48;;;15.20;97.00;;;;;;5084198;28;20052;-70
2021/05/16 09:08:17;;;;;;;4.60;1.17;;;15.20;95.50;;;;;;5078016;28;20048;-70
2021/05/16 09:10:48;;;;;;;8.10;1.35;;;14.90;93.70;;;;;;5087556;28;20514;-69
2021/05/16 09:13:16;;;;;;;8.07;1.73;;;15.00;93.80;;;;;;5084247;28;20044;-70
2021/05/16 09:16:29;;;;;;;8.15;2.15;;;15.00;92.30;;;;;;5075377;28;20044;-70
2021/05/16 09:18:56;;;;;;;7.30;1.42;;;14.80;91.30;;;;;;5080129;28;20036;-70
2021/05/16 09:21:34;;;;;;;2.95;1.35;;;14.80;93.00;;;;;;5080746;28;20048;-70
2021/05/16 09:24:02;;;;;;;6.55;2.20;;;14.90;91.20;;;;;;5076233;28;20067;-69
2021/05/16 09:26:34;;;;;;;10.00;1.73;;;15.10;91.30;;;;;;5080177;28;20436;-68
2021/05/16 09:29:20;;;;;;;9.50;1.75;;;15.50;90.20;;;;;;5084117;28;20141;-68
2021/05/16 09:31:48;;;;;;;8.10;1.65;;;15.60;87.80;;;;;;5089606;28;20052;-68
2021/05/16 09:34:16;;;;;;;13.77;1.92;;;15.70;85.40;;;;;;5074169;28;20415;-69
2021/05/16 09:36:46;;;;;;;8.43;1.65;;;15.80;82.70;;;;;;5087705;28;20044;-68
2021/05/16 09:39:23;;;;;;;4.95;1.52;;;15.80;81.10;;;;;;5074600;28;20060;-69
2021/05/16 09:42:06;;;;;;;4.88;0.98;;;15.90;79.20;;;;;;5079583;28;20447;-70
2021/05/16 09:44:36;;;;;;;3.22;1.10;;;16.10;77.30;;;;;;5081190;28;20051;-70
2021/05/16 09:47:23;;;;;;;6.45;1.42;;;16.30;76.10;;;;;;5087980;28;20352;-69
2021/05/16 09:50:01;;;;;;;6.43;1.23;;;16.40;74.60;;;;;;5075357;28;20465;-69
2021/05/16 09:52:29;;;;;;;10.68;1.85;;;16.50;72.80;;;;;;5083516;28;20504;-69
2021/05/16 09:55:12;;;;;;;5.95;1.52;;;16.70;72.40;;;;;;5086349;28;20098;-69
2021/05/16 09:57:46;;;;;;;7.55;1.40;;;16.60;72.40;;;;;;5087463;28;20080;-70
2021/05/16 10:00:17;;;;;;;8.40;1.65;;;16.60;71.90;;;;;;5088416;28;20052;-70
2021/05/16 10:02:44;;;;;;;5.28;1.10;;;16.70;72.80;;;;;;5089114;28;20086;-70
2021/05/16 10:05:14;;;;;;;4.10;1.10;;;16.70;70.20;;;;;;5087326;28;20459;-69
2021/05/16 10:07:41;;;;;;;8.98;1.35;;;16.80;70.60;;;;;;5087835;28;20143;-72
2021/05/16 10:10:12;;;;;;;9.20;1.30;;;16.40;69.50;;;;;;5086126;28;20425;-70
2021/05/16 10:12:41;;;;;;;9.85;1.85;;;16.40;70.20;;;;;;5087083;28;20503;-70
2021/05/16 10:15:20;;;;;;;5.90;1.40;;;16.40;69.70;;;;;;5086949;28;20138;-71
2021/05/16 10:17:52;;;;;;;6.22;1.52;;;16.30;72.00;;;;;;5087798;28;20518;-70
2021/05/16 10:20:22;;;;;;;11.20;1.67;;;16.50;71.90;;;;;;5085666;28;20734;-71
2021/05/16 10:22:57;;;;;;;6.90;1.67;;;16.60;68.50;;;;;;5088124;28;20076;-71
2021/05/16 10:25:41;;;;;;;6.68;1.40;;;16.80;67.10;;;;;;5085924;28;20048;-71
2021/05/16 10:28:16;;;;;;;6.00;1.48;;;16.50;66.30;;;;;;5083692;28;20548;-70
2021/05/16 10:31:06;;;;;;;5.35;1.25;;;16.40;65.80;;;;;;5096922;27;20075;-71
2021/05/16 10:33:39;;;;;;;9.20;1.70;;;16.40;65.80;;;;;;5089313;28;20040;-70
2021/05/16 10:36:06;;;;;;;7.70;1.65;;;16.00;66.30;;;;;;5083225;28;20142;-71
2021/05/16 10:38:44;;;;;;;4.85;1.15;;;15.70;70.10;;;;;;5085776;28;20055;-71
2021/05/16 10:41:14;;;;;;;8.07;1.25;;;14.50;77.60;;;;;;5085215;28;20059;-72
2021/05/16 10:43:41;;;;;;;8.82;2.17;;;14.60;80.90;;;;;;5082739;28;20055;-71
2021/05/16 10:46:36;;;;;;;3.28;0.82;;;14.70;81.30;;;;;;5084812;28;20537;-72
2021/05/16 10:49:21;;;;;;;11.07;1.33;;;14.70;80.50;;;;;;5088090;28;20584;-70
2021/05/16 10:51:49;;;;;;;7.00;1.38;;;15.10;82.60;;;;;;5083785;28;20048;-72
2021/05/16 10:54:35;;;;;;;7.43;1.30;;;15.20;82.80;;;;;;5088968;28;20196;-72
2021/05/16 10:57:16;;;;;;;7.18;1.30;;;15.30;82.20;;;;;;5085759;28;20040;-74
2021/05/16 10:59:43;;;;;;;8.30;1.30;;;15.70;79.00;;;;;;5083327;28;20471;-73
2021/05/16 11:02:10;;;;;;;5.50;1.23;;;16.10;78.80;;;;;;5083866;28;20075;-73
2021/05/16 11:04:52;;;;;;;7.82;1.17;;;16.50;77.80;;;;;;5085592;28;20067;-72
2021/05/16 11:07:35;;;;;;;6.85;1.10;;;16.40;76.40;;;;;;5085819;28;20075;-71
2021/05/16 11:10:25;;;;;;;5.97;1.48;;;16.60;75.60;;;;;;5086783;28;20043;-70
2021/05/16 11:12:52;;;;;;;2.17;1.00;;;16.90;74.60;;;;;;5083776;28;20460;-71
2021/05/16 11:15:24;;;;;;;2.63;0.93;;;16.60;72.60;;;;;;5084659;28;20607;-72
2021/05/16 11:17:51;;;;;;;8.02;1.17;;;17.10;72.60;;;;;;5086912;28;20105;-70
2021/05/16 11:20:19;;;;;;;4.10;1.17;;;17.20;70.20;;;;;;5083864;28;20061;-70
2021/05/16 11:22:46;;;;;;;6.05;1.10;;;17.50;66.40;;;;;;5085030;28;20156;-72
2021/05/16 11:25:24;;;;;;;4.47;1.00;;;17.30;64.60;;;;;;5085370;28;20142;-71
2021/05/16 11:27:51;;;;;;;6.50;0.82;;;17.10;63.70;;;;;;5084452;28;20060;-71
2021/05/16 11:30:25;;;;;;;3.83;1.10;;;17.30;62.40;;;;;;5084678;28;20696;-72
2021/05/16 11:32:53;;;;;;;5.20;1.65;;;17.80;64.30;;;;;;5084038;28;20076;-71
2021/05/16 11:35:21;;;;;;;8.55;1.48;;;17.90;65.10;;;;;;5083048;28;20523;-72
2021/05/16 11:37:51;;;;;;;7.18;1.40;;;18.00;63.20;;;;;;5080578;28;20106;-69
2021/05/16 11:40:23;;;;;;;8.55;1.30;;;18.00;62.00;;;;;;5083891;28;20095;-72
2021/05/16 11:43:06;;;;;;;8.68;1.65;;;18.00;62.60;;;;;;5081340;28;20136;-70
2021/05/16 11:45:40;;;;;;;4.95;1.35;;;18.50;63.50;;;;;;5084389;28;20083;-72
2021/05/16 11:48:21;;;;;;;8.93;1.63;;;18.90;60.20;;;;;;5085349;28;20060;-72
2021/05/16 11:50:47;;;;;;;5.63;1.30;;;18.80;61.50;;;;;;5095917;28;20147;-74
2021/05/16 11:53:20;;;;;;;5.03;1.15;;;18.80;61.50;;;;;;5081519;28;20063;-73
2021/05/16 11:55:47;;;;;;;14.68;6.93;;;18.30;59.90;;;;;;5086610;28;20547;-73
2021/05/16 11:58:14;;;;;;;11.57;4.82;;;18.60;60.40;;;;;;5084899;28;20785;-73
2021/05/16 12:00:41;;;;;;;10.75;2.03;;;19.30;58.70;;;;;;5081308;28;20744;-73
2021/05/16 12:03:16;;;;;;;40.45;16.77;;;19.70;57.70;;;;;;5086496;28;20137;-73
2021/05/16 12:05:46;;;;;;;27.27;10.20;;;20.30;55.70;;;;;;5085578;28;20076;-72
2021/05/16 12:08:15;;;;;;;14.57;4.03;;;19.30;55.40;;;;;;5077585;28;20056;-73
2021/05/16 12:10:43;;;;;;;6.20;1.67;;;18.30;55.90;;;;;;5074110;28;20380;-74
2021/05/16 12:13:23;;;;;;;11.95;3.85;;;18.40;56.10;;;;;;5089002;28;20604;-74
2021/05/16 12:15:51;;;;;;;16.52;6.18;;;18.20;56.50;;;;;;5082805;28;20040;-74
2021/05/16 12:18:22;;;;;;;13.15;3.20;;;18.30;56.20;;;;;;5081175;28;20044;-74
2021/05/16 12:21:02;;;;;;;12.45;4.57;;;18.10;55.70;;;;;;5086718;28;20056;-74
2021/05/16 12:23:31;;;;;;;5.88;2.53;;;18.00;56.10;;;;;;5079732;28;20040;-74
2021/05/16 12:25:58;;;;;;;8.13;3.20;;;17.70;57.50;;;;;;5084158;28;20048;-74
2021/05/16 12:28:25;;;;;;;10.38;3.10;;;17.50;57.80;;;;;;5084700;28;20206;-74
2021/05/16 12:30:53;;;;;;;5.38;2.20;;;17.20;57.30;;;;;;5084501;28;20044;-74
2021/05/16 12:33:20;;;;;;;6.10;2.53;;;17.20;58.10;;;;;;5080537;28;20082;-74
2021/05/16 12:35:48;;;;;;;15.07;6.70;;;17.20;58.00;;;;;;5082985;28;20052;-74
2021/05/16 12:38:16;;;;;;;7.80;3.15;;;17.20;58.60;;;;;;5079361;28;20129;-74
2021/05/16 12:40:43;;;;;;;6.32;1.83;;;17.40;58.40;;;;;;5088359;28;20621;-74
2021/05/16 12:43:13;;;;;;;13.52;3.50;;;17.40;57.00;;;;;;5081588;28;20081;-72
2021/05/16 12:45:43;;;;;;;5.38;1.90;;;17.90;57.60;;;;;;5080921;28;20048;-73
2021/05/16 12:48:22;;;;;;;7.43;1.67;;;21.60;52.40;;;;;;5087691;28;20444;-72
2021/05/16 12:50:59;;;;;;;4.30;1.83;;;18.70;53.30;;;;;;5080611;28;20123;-73
2021/05/16 12:53:44;;;;;;;9.73;2.28;;;18.30;54.80;;;;;;5088724;28;20044;-73
2021/05/16 12:56:28;;;;;;;5.80;2.15;;;18.90;53.20;;;;;;5089219;28;20106;-73